createdAt,value
2019-05-26T00:02:19.333Z,6.08
2019-05-26T00:07:30.679Z,5.75
2019-05-26T00:12:28.077Z,6.55
2019-05-26T00:17:31.474Z,6.95
2019-05-26T00:22:35.112Z,7.17
2019-05-26T00:27:38.514Z,7.08
2019-05-26T00:32:42.271Z,7.12
2019-05-26T00:37:49.691Z,7.28
2019-05-26T00:42:51.426Z,7.28
2019-05-26T00:47:55.165Z,6.03
2019-05-26T00:52:59.540Z,6.28
2019-05-26T00:58:03.037Z,6.70
2019-05-26T01:03:06.468Z,6.83
2019-05-26T01:08:10.049Z,7.05
2019-05-26T01:13:13.756Z,7.47
2019-05-26T01:18:17.155Z,7.60
2019-05-26T01:23:20.792Z,8.20
2019-05-26T01:28:24.195Z,7.45
2019-05-26T01:33:27.606Z,8.60
2019-05-26T01:38:31.742Z,8.75
2019-05-26T01:43:35.143Z,8.13
2019-05-26T01:48:38.902Z,6.85
2019-05-26T01:53:42.274Z,5.53
2019-05-26T01:58:45.668Z,9.13
2019-05-26T02:03:49.326Z,9.28
2019-05-26T02:08:52.725Z,9.18
2019-05-26T02:13:56.118Z,8.35
2019-05-26T02:18:59.508Z,6.10
2019-05-26T02:24:02.917Z,9.70
2019-05-26T02:29:06.549Z,9.13
2019-05-26T02:34:09.962Z,10.32
2019-05-26T02:39:13.349Z,9.83
2019-05-26T02:44:16.747Z,9.98
2019-05-26T02:49:20.142Z,9.10
2019-05-26T02:54:23.784Z,9.08
2019-05-26T02:59:27.182Z,9.00
2019-05-26T03:04:30.591Z,10.00
2019-05-26T03:09:36.793Z,9.20
2019-05-26T03:14:43.579Z,8.68
2019-05-26T03:19:49.180Z,9.95
2019-05-26T03:24:53.892Z,9.30
2019-05-26T03:29:57.522Z,11.80
2019-05-26T03:35:00.927Z,12.90
2019-05-26T03:40:07.061Z,8.98
2019-05-26T03:45:12.049Z,10.60
2019-05-26T03:50:15.772Z,10.05
2019-05-26T03:55:19.490Z,8.90
2019-05-26T04:00:24.355Z,8.45
2019-05-26T04:05:27.757Z,12.20
2019-05-26T04:10:31.433Z,12.35
2019-05-26T04:15:35.000Z,13.62
2019-05-26T04:20:38.714Z,16.05
2019-05-26T04:25:42.349Z,14.60
2019-05-26T04:30:45.752Z,15.18
2019-05-26T04:35:49.469Z,16.77
2019-05-26T04:40:53.200Z,16.80
2019-05-26T04:45:56.637Z,16.97
2019-05-26T04:51:00.039Z,17.15
2019-05-26T04:56:03.453Z,16.97
2019-05-26T05:01:06.911Z,15.63
2019-05-26T05:06:10.319Z,18.50
2019-05-26T05:11:13.718Z,18.70
2019-05-26T05:16:17.396Z,16.80
2019-05-26T05:21:20.801Z,15.25
2019-05-26T05:26:24.529Z,15.80
2019-05-26T05:31:27.985Z,15.43
2019-05-26T05:36:31.665Z,14.50
2019-05-26T05:41:35.297Z,13.00
2019-05-26T05:46:38.755Z,13.25
2019-05-26T05:51:42.250Z,13.90
2019-05-26T05:56:45.655Z,13.35
2019-05-26T06:01:49.061Z,14.50
2019-05-26T06:06:52.763Z,15.00
2019-05-26T06:11:57.161Z,15.32
2019-05-26T06:17:01.019Z,14.53
2019-05-26T06:22:05.066Z,13.60
2019-05-26T06:27:08.454Z,12.78
2019-05-26T06:32:12.177Z,12.05
2019-05-26T06:37:15.699Z,11.95
2019-05-26T06:42:19.427Z,12.25
2019-05-26T06:47:22.826Z,12.82
2019-05-26T06:52:26.467Z,11.00
2019-05-26T06:57:29.940Z,10.82
2019-05-26T07:02:33.342Z,11.40
2019-05-26T07:07:36.996Z,10.58
2019-05-26T07:12:40.731Z,11.68
2019-05-26T07:17:44.684Z,10.58
2019-05-26T07:22:48.084Z,10.55
2019-05-26T07:27:51.791Z,9.53
2019-05-26T07:32:55.479Z,10.10
2019-05-26T07:37:59.116Z,8.13
2019-05-26T07:43:02.754Z,9.85
2019-05-26T07:48:06.215Z,10.00
2019-05-26T07:53:09.657Z,8.25
2019-05-26T07:58:13.032Z,8.53
2019-05-26T08:03:16.442Z,8.28
2019-05-26T08:08:20.146Z,8.83
2019-05-26T08:13:23.764Z,7.72
2019-05-26T08:18:27.439Z,7.42
2019-05-26T08:23:31.136Z,8.10
2019-05-26T08:28:34.537Z,8.08
2019-05-26T08:33:37.935Z,8.25
2019-05-26T08:38:41.326Z,8.55
2019-05-26T08:43:44.981Z,8.05
2019-05-26T08:48:48.363Z,8.00
2019-05-26T08:53:51.998Z,7.95
2019-05-26T08:58:55.632Z,6.10
2019-05-26T09:03:59.285Z,8.13
2019-05-26T09:09:02.676Z,6.42
2019-05-26T09:14:06.072Z,7.00
2019-05-26T09:19:09.696Z,7.12
2019-05-26T09:24:13.140Z,7.47
2019-05-26T09:29:16.538Z,6.72
2019-05-26T09:34:19.928Z,7.25
2019-05-26T09:39:23.558Z,6.90
2019-05-26T09:44:27.187Z,6.40
2019-05-26T09:49:30.812Z,6.15
2019-05-26T09:54:34.206Z,6.72
2019-05-26T09:59:37.592Z,4.28
2019-05-26T10:04:40.980Z,5.35
2019-05-26T10:09:44.617Z,3.35
2019-05-26T10:14:48.264Z,3.22
2019-05-26T10:19:51.891Z,3.10
2019-05-26T10:24:55.279Z,4.45
2019-05-26T10:29:58.668Z,4.03
2019-05-26T10:35:02.412Z,2.55
2019-05-26T10:40:07.177Z,2.98
2019-05-26T10:45:11.219Z,2.90
2019-05-26T10:50:16.454Z,2.83
2019-05-26T10:55:19.856Z,4.30
2019-05-26T11:00:23.594Z,4.30
2019-05-26T11:05:27.313Z,4.40
2019-05-26T11:10:30.709Z,4.58
2019-05-26T11:15:34.641Z,4.12
2019-05-26T11:20:38.088Z,3.85
2019-05-26T11:25:42.317Z,4.10
2019-05-26T11:30:45.738Z,3.65
2019-05-26T11:35:49.424Z,3.52
2019-05-26T11:40:53.159Z,3.80
2019-05-26T11:45:56.838Z,4.05
2019-05-26T11:51:00.487Z,3.50
2019-05-26T11:56:03.944Z,3.62
2019-05-26T12:01:07.353Z,3.70
2019-05-26T12:06:10.744Z,3.75
2019-05-26T12:11:14.454Z,3.15
2019-05-26T12:16:17.849Z,3.20
2019-05-26T12:21:21.582Z,3.33
2019-05-26T12:26:25.033Z,2.85
2019-05-26T12:31:28.425Z,2.65
2019-05-26T12:36:32.074Z,3.20
2019-05-26T12:41:37.390Z,2.30
2019-05-26T12:46:40.584Z,2.55
2019-05-26T12:51:44.055Z,2.77
2019-05-26T12:56:47.443Z,3.20
2019-05-26T13:01:50.846Z,2.92
2019-05-26T13:06:54.560Z,2.47
2019-05-26T13:11:58.300Z,3.05
2019-05-26T13:17:01.871Z,3.20
2019-05-26T13:22:05.727Z,3.17
2019-05-26T13:27:09.370Z,3.30
2019-05-26T13:32:13.068Z,3.60
2019-05-26T13:37:16.467Z,3.02
2019-05-26T13:42:20.178Z,2.72
2019-05-26T13:47:26.535Z,3.05
2019-05-26T13:52:28.943Z,2.77
2019-05-26T13:57:32.597Z,2.83
2019-05-26T14:02:36.319Z,3.00
2019-05-26T14:07:39.945Z,3.47
2019-05-26T14:12:43.345Z,2.90
2019-05-26T14:17:46.929Z,2.80
2019-05-26T14:22:50.427Z,2.77
2019-05-26T14:27:54.101Z,2.90
2019-05-26T14:32:57.825Z,2.60
2019-05-26T14:38:01.221Z,2.87
2019-05-26T14:43:05.473Z,3.00
2019-05-26T14:48:09.206Z,2.85
2019-05-26T14:53:12.916Z,2.85
2019-05-26T14:58:16.893Z,3.10
2019-05-26T15:03:20.670Z,3.00
2019-05-26T15:08:24.116Z,3.05
2019-05-26T15:13:27.514Z,3.17
2019-05-26T15:18:30.950Z,3.00
2019-05-26T15:23:34.576Z,2.90
2019-05-26T15:28:37.970Z,2.80
2019-05-26T15:33:41.600Z,2.83
2019-05-26T15:38:44.996Z,2.80
2019-05-26T15:43:51.309Z,2.47
2019-05-26T15:48:54.704Z,2.62
2019-05-26T15:53:58.392Z,2.40
2019-05-26T15:59:02.081Z,2.87
2019-05-26T16:04:05.723Z,2.25
2019-05-26T16:09:09.109Z,2.30
2019-05-26T16:14:12.832Z,2.62
2019-05-26T16:19:16.566Z,2.60
2019-05-26T16:24:20.209Z,2.80
2019-05-26T16:29:23.602Z,2.52
2019-05-26T16:34:27.068Z,2.17
2019-05-26T16:39:36.977Z,2.40
2019-05-26T16:44:35.977Z,2.58
2019-05-26T16:49:39.654Z,2.67
2019-05-26T16:54:43.485Z,2.52
2019-05-26T16:59:47.204Z,2.58
2019-05-26T17:04:50.879Z,2.70
2019-05-26T17:09:54.252Z,2.55
2019-05-26T17:14:57.646Z,2.80
2019-05-26T17:20:01.121Z,2.87
2019-05-26T17:25:05.455Z,3.15
2019-05-26T17:30:09.786Z,2.77
2019-05-26T17:35:13.349Z,2.70
2019-05-26T17:40:17.460Z,2.58
2019-05-26T17:45:21.155Z,3.12
2019-05-26T17:50:24.692Z,2.52
2019-05-26T17:55:28.078Z,2.70
2019-05-26T18:00:31.499Z,2.90
2019-05-26T18:05:35.121Z,3.00
2019-05-26T18:10:38.513Z,2.70
2019-05-26T18:15:42.007Z,2.47
2019-05-26T18:20:45.757Z,2.55
2019-05-26T18:25:49.522Z,2.70
2019-05-26T18:30:52.916Z,2.80
2019-05-26T18:35:56.553Z,3.05
2019-05-26T18:41:00.273Z,2.98
2019-05-26T18:46:03.910Z,3.17
2019-05-26T18:51:07.306Z,3.22
2019-05-26T18:56:10.754Z,3.50
2019-05-26T19:01:14.190Z,4.08
2019-05-26T19:06:17.569Z,4.00
2019-05-26T19:11:20.998Z,4.20
2019-05-26T19:16:24.394Z,4.28
2019-05-26T19:21:27.836Z,4.40
2019-05-26T19:26:31.301Z,4.70
2019-05-26T19:31:34.698Z,5.10
2019-05-26T19:36:38.352Z,4.45
2019-05-26T19:41:41.753Z,4.97
2019-05-26T19:46:45.168Z,4.90
2019-05-26T19:51:48.922Z,4.50
2019-05-26T19:56:52.610Z,4.45
2019-05-26T20:01:56.230Z,4.40
2019-05-26T20:06:59.627Z,4.80
2019-05-26T20:12:03.365Z,4.95
2019-05-26T20:17:06.819Z,4.75
2019-05-26T20:22:10.219Z,4.55
2019-05-26T20:27:13.915Z,4.55
2019-05-26T20:32:17.638Z,4.35
2019-05-26T20:37:21.567Z,4.60
2019-05-26T20:42:24.931Z,5.15
2019-05-26T20:47:28.429Z,4.20
2019-05-26T20:52:31.884Z,4.58
2019-05-26T20:57:35.627Z,4.50
2019-05-26T21:02:39.351Z,4.40
2019-05-26T21:07:42.749Z,4.72
2019-05-26T21:12:46.214Z,4.80
2019-05-26T21:17:49.605Z,4.72
2019-05-26T21:22:53.314Z,4.37
2019-05-26T21:27:56.717Z,4.95
2019-05-26T21:33:00.114Z,4.42
2019-05-26T21:38:03.698Z,4.37
2019-05-26T21:43:07.380Z,4.20
2019-05-26T21:48:11.096Z,4.33
2019-05-26T21:53:14.727Z,5.28
2019-05-26T21:58:18.124Z,5.20
2019-05-26T22:03:21.888Z,5.20
2019-05-26T22:08:25.251Z,5.10
2019-05-26T22:13:28.943Z,5.17
2019-05-26T22:18:32.343Z,5.92
2019-05-26T22:23:35.740Z,5.40
2019-05-26T22:28:39.440Z,5.58
2019-05-26T22:33:42.832Z,5.70
2019-05-26T22:38:46.471Z,5.20
2019-05-26T22:43:50.152Z,4.87
2019-05-26T22:48:53.544Z,5.90
2019-05-26T22:53:57.172Z,6.53
2019-05-26T22:59:00.848Z,5.17
2019-05-26T23:04:04.578Z,5.45
2019-05-26T23:09:08.134Z,5.90
2019-05-26T23:14:11.806Z,5.50
2019-05-26T23:19:19.358Z,6.17
2019-05-26T23:24:20.933Z,5.70
2019-05-26T23:29:24.327Z,5.67
2019-05-26T23:34:27.726Z,5.80
2019-05-26T23:39:31.357Z,5.55
2019-05-26T23:44:35.052Z,5.75
2019-05-26T23:49:38.447Z,5.95
2019-05-26T23:54:42.185Z,5.92
2019-05-26T23:59:45.588Z,6.12
